Time;durP1;ratioP1;P1;durP2;ratioP2;P2;SDS_P1;SDS_P2;PMS_P1;PMS_P2;Temp;Humidity;BMP_temperature;BMP_pressure;BME280_temperature;BME280_humidity;BME280_pressure;Samples;Min_cycle;Max_cycle;Signal;HPM_P1;HPM_P2
2022/12/31 00:00:10;;;;;;;55.60;31.60;;;;;;;4.66;100.00;101199.20;1453818;90;21346;-86
2022/12/31 00:02:36;;;;;;;59.93;30.93;;;;;;;4.63;100.00;101211.62;1452918;90;21339;-86
2022/12/31 00:05:03;;;;;;;60.10;31.27;;;;;;;4.58;100.00;101216.33;1452712;90;21449;-86
2022/12/31 00:07:29;;;;;;;52.57;28.57;;;;;;;4.48;100.00;101222.55;1450390;90;21354;-86
2022/12/31 00:09:56;;;;;;;52.30;29.50;;;;;;;4.44;100.00;101228.45;1447152;90;21354;-86
2022/12/31 00:12:22;;;;;;;51.00;28.77;;;;;;;4.37;100.00;101222.33;1452512;90;21508;-85
2022/12/31 00:14:48;;;;;;;51.07;26.80;;;;;;;4.34;100.00;101230.36;1457317;90;21870;-85
2022/12/31 00:17:14;;;;;;;49.80;26.83;;;;;;;4.33;100.00;101233.45;1452937;90;22314;-86
2022/12/31 00:19:40;;;;;;;58.03;30.83;;;;;;;4.34;100.00;101220.72;1452298;90;21309;-87
2022/12/31 00:22:07;;;;;;;44.60;25.73;;;;;;;4.37;100.00;101222.33;1450762;90;21405;-86
2022/12/31 00:24:34;;;;;;;50.57;28.53;;;;;;;4.36;100.00;101209.69;1450729;90;21568;-87
2022/12/31 00:27:02;;;;;;;47.87;26.20;;;;;;;4.41;100.00;101200.27;1448585;88;21442;-86
2022/12/31 00:29:28;;;;;;;51.90;29.13;;;;;;;4.44;100.00;101212.72;1457739;90;21338;-87
2022/12/31 00:31:55;;;;;;;67.20;34.27;;;;;;;4.44;100.00;101219.27;1450138;90;22262;-88
2022/12/31 00:34:21;;;;;;;65.13;34.93;;;;;;;4.41;100.00;101212.90;1447833;90;21332;-89
2022/12/31 00:36:47;;;;;;;49.77;28.00;;;;;;;4.41;100.00;101203.72;1455392;90;21498;-88
2022/12/31 00:39:14;;;;;;;60.00;30.67;;;;;;;4.43;100.00;101205.80;1459297;90;21412;-85
2022/12/31 00:41:42;;;;;;;45.33;27.37;;;;;;;4.46;100.00;101204.31;1452561;90;22285;-86
2022/12/31 00:44:11;;;;;;;46.27;26.47;;;;;;;4.48;100.00;101195.86;1452673;90;22241;-87
2022/12/31 00:46:38;;;;;;;48.63;28.07;;;;;;;4.51;100.00;101204.86;1452024;90;21516;-88
2022/12/31 00:49:05;;;;;;;44.63;26.00;;;;;;;4.55;100.00;101203.39;1448368;90;21397;-87
2022/12/31 00:51:31;;;;;;;52.30;31.77;;;;;;;4.53;100.00;101209.55;1444571;90;21546;-90
2022/12/31 00:53:57;;;;;;;51.07;30.07;;;;;;;4.47;100.00;101215.63;1453129;90;21294;-90
2022/12/31 00:56:28;;;;;;;51.13;28.13;;;;;;;4.35;100.00;101226.36;1451140;90;22219;-89
2022/12/31 00:58:54;;;;;;;42.90;27.50;;;;;;;4.28;100.00;101229.77;1447571;89;21427;-85
2022/12/31 01:01:27;;;;;;;49.10;28.50;;;;;;;4.27;100.00;101229.41;1450154;90;21456;-88
2022/12/31 01:04:00;;;;;;;43.57;27.60;;;;;;;4.27;100.00;101221.55;1457209;90;21524;-86
2022/12/31 01:06:26;;;;;;;51.40;28.97;;;;;;;4.29;100.00;101224.09;1448083;90;22373;-87
2022/12/31 01:08:54;;;;;;;57.83;29.60;;;;;;;4.28;100.00;101231.55;1454485;90;21316;-88
2022/12/31 01:11:21;;;;;;;47.93;28.07;;;;;;;4.29;100.00;101221.47;1456220;90;22447;-88
2022/12/31 01:14:01;;;;;;;53.93;30.60;;;;;;;4.30;100.00;101233.63;1453088;90;21434;-88
2022/12/31 01:16:41;;;;;;;57.83;27.95;;;;;;;4.24;100.00;101235.30;1449120;90;21419;-88
2022/12/31 01:19:12;;;;;;;44.77;27.20;;;;;;;4.18;100.00;101231.25;1452540;89;21427;-85
2022/12/31 01:21:41;;;;;;;41.50;26.55;;;;;;;4.15;100.00;101230.59;1455462;90;21486;-85
2022/12/31 01:24:10;;;;;;;53.70;30.63;;;;;;;4.17;100.00;101233.50;1448485;90;21250;-87
2022/12/31 01:26:37;;;;;;;62.23;32.30;;;;;;;4.17;100.00;101237.88;1449523;90;22426;-87
2022/12/31 01:29:05;;;;;;;41.10;25.13;;;;;;;4.13;100.00;101230.66;1451944;89;21456;-87
2022/12/31 01:31:33;;;;;;;46.13;27.03;;;;;;;4.10;100.00;101231.30;1450410;90;22440;-85
2022/12/31 01:34:00;;;;;;;72.10;34.10;;;;;;;4.05;100.00;101227.62;1453493;90;21369;-84
2022/12/31 01:36:29;;;;;;;51.97;30.33;;;;;;;4.04;100.00;101224.63;1453003;90;22241;-83
2022/12/31 01:38:59;;;;;;;52.13;29.70;;;;;;;4.03;100.00;101223.80;1447457;90;21265;-83
2022/12/31 01:41:30;;;;;;;43.40;28.73;;;;;;;3.99;100.00;101224.88;1448297;90;22293;-85
2022/12/31 01:44:13;;;;;;;42.13;25.37;;;;;;;3.95;100.00;101229.92;1457835;90;21339;-88
2022/12/31 01:46:54;;;;;;;47.43;28.77;;;;;;;3.94;100.00;101228.67;1452439;90;22292;-89
2022/12/31 01:49:40;;;;;;;54.13;30.17;;;;;;;3.91;100.00;101219.69;1450547;90;21486;-89
2022/12/31 01:52:35;;;;;;;51.07;28.90;;;;;;;3.92;100.00;101219.61;1449595;90;21368;-88
2022/12/31 01:55:19;;;;;;;72.13;36.23;;;;;;;3.93;100.00;101222.60;1448042;90;21455;-89
2022/12/31 01:57:50;;;;;;;75.40;38.70;;;;;;;3.91;100.00;101221.83;1453148;90;21397;-84
2022/12/31 02:00:17;;;;;;;61.73;33.05;;;;;;;3.90;100.00;101218.84;1453013;90;22084;-86
2022/12/31 02:02:43;;;;;;;51.67;30.00;;;;;;;3.90;100.00;101211.45;1449784;89;22565;-87
2022/12/31 02:05:24;;;;;;;52.77;32.90;;;;;;;3.92;100.00;101217.47;1450295;90;21361;-89
2022/12/31 02:07:52;;;;;;;50.23;30.00;;;;;;;3.93;100.00;101210.81;1456340;90;21575;-89
2022/12/31 02:10:18;;;;;;;57.77;31.80;;;;;;;3.98;100.00;101210.10;1452047;90;21265;-87
2022/12/31 02:12:47;;;;;;;47.73;27.20;;;;;;;3.96;100.00;101194.92;1454421;90;21412;-85
2022/12/31 02:15:13;;;;;;;52.37;28.43;;;;;;;4.07;100.00;101199.09;1449628;90;21497;-85
2022/12/31 02:17:48;;;;;;;51.73;32.80;;;;;;;4.11;100.00;101205.00;1456456;90;21367;-86
2022/12/31 02:20:43;;;;;;;53.77;28.57;;;;;;;4.16;100.00;101212.61;1442942;90;21346;-87
2022/12/31 02:23:46;;;;;;;51.30;29.43;;;;;;;4.18;100.00;101214.69;1447567;90;21590;-87
2022/12/31 02:26:51;;;;;;;48.17;29.03;;;;;;;4.17;100.00;101211.67;1451581;90;21649;-83
2022/12/31 02:29:58;;;;;;;41.83;28.07;;;;;;;4.15;100.00;101211.77;1449517;89;22520;-85
2022/12/31 02:32:54;;;;;;;46.80;27.17;;;;;;;4.18;100.00;101217.31;1449979;89;21642;-86
2022/12/31 02:35:47;;;;;;;39.37;25.63;;;;;;;4.24;100.00;101211.71;1452648;90;21398;-85
2022/12/31 02:38:34;;;;;;;42.63;26.53;;;;;;;4.26;100.00;101218.56;1446322;90;22300;-85
2022/12/31 02:41:01;;;;;;;57.47;31.50;;;;;;;4.27;100.00;101224.64;1455797;90;21442;-87
2022/12/31 02:43:28;;;;;;;55.73;31.83;;;;;;;4.25;100.00;101222.56;1458151;90;21324;-86
2022/12/31 02:46:14;;;;;;;60.67;33.40;;;;;;;4.26;100.00;101221.66;1452183;90;21530;-87
2022/12/31 02:48:50;;;;;;;55.23;33.63;;;;;;;4.26;100.00;101219.03;1448947;89;21997;-86
2022/12/31 02:51:46;;;;;;;52.17;32.73;;;;;;;4.25;100.00;101223.87;1449148;90;21589;-86
2022/12/31 02:54:43;;;;;;;49.03;27.67;;;;;;;4.25;100.00;101229.11;1456439;89;21421;-85
2022/12/31 02:57:23;;;;;;;38.93;27.60;;;;;;;4.28;100.00;101227.63;1449228;90;22453;-87
2022/12/31 03:02:46;;;;;;;49.13;28.57;;;;;;;4.30;100.00;101240.19;1457543;90;21441;-86
2022/12/31 03:05:16;;;;;;;48.80;28.73;;;;;;;4.35;100.00;101238.16;1457650;90;21361;-88
2022/12/31 03:07:43;;;;;;;57.47;33.90;;;;;;;4.35;100.00;101236.00;1454376;90;21583;-87
2022/12/31 03:10:10;;;;;;;52.83;31.30;;;;;;;4.35;100.00;101236.84;1453660;90;21376;-86
2022/12/31 03:12:48;;;;;;;64.70;33.53;;;;;;;4.35;100.00;101238.62;1449044;90;21433;-87
2022/12/31 03:15:27;;;;;;;50.43;29.60;;;;;;;4.33;100.00;101237.39;1456268;90;21466;-86
2022/12/31 03:18:04;;;;;;;39.80;24.70;;;;;;;4.32;100.00;101238.33;1456198;90;21631;-85
2022/12/31 03:23:37;;;;;;;35.90;22.13;;;;;;;4.38;100.00;101235.36;1456831;90;21742;-84
2022/12/31 03:26:12;;;;;;;26.17;19.13;;;;;;;4.40;100.00;101246.61;1446619;90;22249;-86
2022/12/31 03:28:40;;;;;;;29.60;21.20;;;;;;;4.43;100.00;101246.42;1454674;89;21644;-88
2022/12/31 03:31:07;;;;;;;34.20;24.23;;;;;;;4.46;100.00;101243.63;1447758;89;21362;-88
2022/12/31 03:33:38;;;;;;;53.10;31.17;;;;;;;4.47;100.00;101235.29;1449111;89;21931;-90
2022/12/31 03:36:09;;;;;;;41.95;27.20;;;;;;;4.46;100.00;101244.94;1454546;90;22226;-87
2022/12/31 03:38:36;;;;;;;34.83;23.43;;;;;;;4.40;100.00;101238.73;1454354;89;21479;-87
2022/12/31 03:41:02;;;;;;;36.07;24.43;;;;;;;4.39;100.00;101242.27;1457966;89;21383;-88
2022/12/31 03:43:29;;;;;;;33.27;22.20;;;;;;;4.36;100.00;101238.52;1456398;89;21428;-88
2022/12/31 03:45:58;;;;;;;30.60;21.90;;;;;;;4.35;100.00;101236.84;1456479;89;21427;-86
2022/12/31 03:48:23;;;;;;;26.97;19.37;;;;;;;4.37;100.00;101234.95;1444623;89;21463;-87
2022/12/31 03:50:50;;;;;;;24.70;18.57;;;;;;;4.44;100.00;101235.47;1451645;89;21391;-85
2022/12/31 03:53:17;;;;;;;32.77;20.70;;;;;;;4.46;100.00;101226.59;1453379;89;21509;-86
2022/12/31 03:55:43;;;;;;;29.83;22.67;;;;;;;4.49;100.00;101229.03;1449522;89;21368;-87
2022/12/31 03:58:10;;;;;;;30.37;21.37;;;;;;;4.50;100.00;101221.53;1449271;89;21353;-86
2022/12/31 04:00:36;;;;;;;30.70;21.13;;;;;;;4.48;100.00;101224.70;1456183;89;22352;-84
2022/12/31 04:03:02;;;;;;;30.67;20.73;;;;;;;4.48;100.00;101231.25;1455259;89;21428;-88
2022/12/31 04:05:29;;;;;;;30.37;20.33;;;;;;;4.47;100.00;101220.41;1448985;89;21520;-88
2022/12/31 04:07:55;;;;;;;27.57;19.13;;;;;;;4.49;100.00;101215.08;1453103;89;21347;-88
2022/12/31 04:10:21;;;;;;;27.20;19.13;;;;;;;4.49;100.00;101219.86;1458140;89;21354;-88
2022/12/31 04:12:47;;;;;;;28.10;19.77;;;;;;;4.49;100.00;101222.48;1446800;90;22705;-88
2022/12/31 04:15:20;;;;;;;28.97;21.17;;;;;;;4.48;100.00;101226.48;1450615;90;21413;-89
2022/12/31 04:17:48;;;;;;;30.67;22.23;;;;;;;4.48;100.00;101218.14;1445117;90;22425;-88
2022/12/31 04:20:15;;;;;;;34.70;26.10;;;;;;;4.48;100.00;101218.14;1444073;89;21917;-85
2022/12/31 04:22:41;;;;;;;31.33;22.67;;;;;;;4.49;100.00;101219.02;1452894;89;21582;-90
2022/12/31 04:25:11;;;;;;;30.60;21.00;;;;;;;4.50;100.00;101221.53;1453670;89;21543;-90
2022/12/31 04:27:40;;;;;;;32.63;22.30;;;;;;;4.51;100.00;101223.20;1454966;89;21479;-90
2022/12/31 04:30:08;;;;;;;28.17;20.63;;;;;;;4.52;100.00;101221.45;1440039;89;21494;-89
2022/12/31 04:32:34;;;;;;;36.00;24.23;;;;;;;4.53;100.00;101226.59;1454323;90;22360;-89
2022/12/31 04:35:00;;;;;;;27.67;19.73;;;;;;;4.53;100.00;101221.35;1450925;89;21390;-86
2022/12/31 04:37:26;;;;;;;37.37;22.07;;;;;;;4.55;100.00;101226.52;1451189;89;21294;-90
2022/12/31 04:39:53;;;;;;;30.23;20.93;;;;;;;4.53;100.00;101225.75;1454650;89;21697;-89
2022/12/31 04:42:20;;;;;;;35.73;22.53;;;;;;;4.49;100.00;101226.87;1451976;89;21427;-89
2022/12/31 04:44:46;;;;;;;34.03;22.90;;;;;;;4.44;100.00;101229.75;1452709;89;21323;-90
2022/12/31 04:47:12;;;;;;;34.47;22.40;;;;;;;4.41;100.00;101236.48;1452507;89;22816;-88
2022/12/31 04:49:38;;;;;;;32.33;22.60;;;;;;;4.40;100.00;101240.48;1457102;90;21383;-89
2022/12/31 04:52:04;;;;;;;30.10;22.33;;;;;;;4.40;100.00;101243.98;1450712;90;21390;-85
2022/12/31 04:54:31;;;;;;;34.33;23.07;;;;;;;4.37;100.00;101239.36;1448248;90;21346;-87
2022/12/31 04:56:57;;;;;;;33.53;23.27;;;;;;;4.35;100.00;101239.46;1454543;89;21332;-87
2022/12/31 04:59:23;;;;;;;33.27;23.60;;;;;;;4.37;100.00;101244.13;1451146;90;21522;-88
2022/12/31 05:01:49;;;;;;;31.20;20.33;;;;;;;4.41;100.00;101242.20;1454867;89;21656;-87
2022/12/31 05:04:16;;;;;;;33.13;23.53;;;;;;;4.46;100.00;101244.94;1450797;89;21368;-88
2022/12/31 05:06:42;;;;;;;36.40;25.70;;;;;;;4.45;100.00;101261.58;1452910;89;21369;-88
2022/12/31 05:09:08;;;;;;;38.03;27.57;;;;;;;4.46;100.00;101254.55;1456017;89;21426;-87
2022/12/31 05:11:34;;;;;;;43.47;29.57;;;;;;;4.47;100.00;101253.17;1449354;89;21361;-88
2022/12/31 05:14:00;;;;;;;38.83;27.50;;;;;;;4.48;100.00;101243.05;1454628;89;22336;-90
2022/12/31 05:16:26;;;;;;;33.13;22.30;;;;;;;4.47;100.00;101232.20;1452539;90;21228;-88
2022/12/31 05:18:53;;;;;;;32.93;21.70;;;;;;;4.48;100.00;101240.42;1453810;90;21464;-87
2022/12/31 05:21:21;;;;;;;31.10;19.70;;;;;;;4.49;100.00;101234.75;1454699;90;22315;-88
2022/12/31 05:23:48;;;;;;;33.50;24.00;;;;;;;4.50;100.00;101237.27;1448688;89;21871;-88
2022/12/31 05:26:15;;;;;;;42.57;29.63;;;;;;;4.49;100.00;101226.87;1441262;90;21279;-88
2022/12/31 05:28:41;;;;;;;40.30;28.13;;;;;;;4.49;100.00;101220.33;1456189;89;21389;-86
2022/12/31 05:31:07;;;;;;;45.37;29.23;;;;;;;4.46;100.00;101222.66;1449581;90;22257;-83
2022/12/31 05:33:34;;;;;;;39.97;28.03;;;;;;;4.43;100.00;101207.11;1450323;90;22521;-87
2022/12/31 05:36:00;;;;;;;40.73;26.10;;;;;;;4.40;100.00;101199.42;1451098;90;21376;-90
2022/12/31 05:38:27;;;;;;;39.47;26.77;;;;;;;4.38;100.00;101194.73;1449103;90;21331;-90
2022/12/31 05:41:06;;;;;;;38.43;27.83;;;;;;;4.33;100.00;101183.66;1452238;90;22448;-89
2022/12/31 05:43:33;;;;;;;39.70;25.77;;;;;;;4.29;100.00;101176.45;1451883;90;21473;-89
2022/12/31 05:46:01;;;;;;;34.37;24.73;;;;;;;4.27;100.00;101177.47;1446753;90;22374;-90
2022/12/31 05:48:28;;;;;;;38.17;26.47;;;;;;;4.22;100.00;101179.50;1451787;90;21324;-92
2022/12/31 05:50:54;;;;;;;41.53;25.40;;;;;;;4.16;100.00;101183.32;1443741;90;21472;-91
2022/12/31 05:53:20;;;;;;;37.90;25.33;;;;;;;4.09;100.00;101174.14;1451981;90;21396;-93
2022/12/31 05:55:47;;;;;;;36.57;23.87;;;;;;;4.01;100.00;101185.04;1451738;89;21339;-94
2022/12/31 05:58:15;;;;;;;59.20;38.23;;;;;;;3.93;100.00;101182.00;1439558;90;22353;-89
2022/12/31 06:00:43;;;;;;;51.70;35.43;;;;;;;3.86;100.00;101197.70;1442425;90;21420;-88
2022/12/31 06:03:09;;;;;;;43.97;29.60;;;;;;;3.81;100.00;101194.48;1450476;90;21294;-88
2022/12/31 06:05:41;;;;;;;39.47;25.07;;;;;;;3.81;100.00;101193.17;1454922;90;21383;-91
2022/12/31 06:08:08;;;;;;;37.20;26.30;;;;;;;3.86;100.00;101204.25;1462965;90;21325;-91
2022/12/31 06:10:34;;;;;;;35.20;24.47;;;;;;;3.90;100.00;101195.28;1455658;90;22388;-92
2022/12/31 06:13:00;;;;;;;42.03;27.60;;;;;;;3.95;100.00;101198.95;1455199;90;21374;-90
2022/12/31 06:15:26;;;;;;;39.70;26.03;;;;;;;3.95;100.00;101197.66;1452324;90;21338;-90
2022/12/31 06:17:52;;;;;;;32.70;23.03;;;;;;;3.91;100.00;101200.05;1441825;90;21398;-91
2022/12/31 06:20:18;;;;;;;40.23;25.17;;;;;;;3.82;100.00;101209.26;1452951;90;22261;-88
2022/12/31 06:22:45;;;;;;;33.63;23.90;;;;;;;3.74;100.00;101212.76;1453700;90;21368;-90
2022/12/31 06:25:11;;;;;;;36.77;25.83;;;;;;;3.73;100.00;101213.70;1452124;90;21405;-90
2022/12/31 06:27:37;;;;;;;34.47;25.03;;;;;;;3.75;100.00;101212.69;1450161;90;22173;-89
2022/12/31 06:30:04;;;;;;;32.23;23.47;;;;;;;3.77;100.00;101212.59;1454355;89;21559;-91
2022/12/31 06:32:30;;;;;;;32.93;21.93;;;;;;;3.82;100.00;101221.05;1457118;88;21641;-86
2022/12/31 06:34:56;;;;;;;28.63;20.03;;;;;;;3.80;100.00;101226.85;1445368;90;21391;-88
2022/12/31 06:37:22;;;;;;;31.40;19.87;;;;;;;3.72;100.00;101240.82;1455375;90;22241;-92
2022/12/31 06:39:49;;;;;;;31.53;21.57;;;;;;;3.64;100.00;101248.24;1451840;90;21309;-87
2022/12/31 06:42:20;;;;;;;32.90;23.50;;;;;;;3.60;100.00;101257.57;1456679;90;21488;-90
2022/12/31 06:44:46;;;;;;;35.53;23.70;;;;;;;3.63;100.00;101272.74;1448853;90;21295;-90
2022/12/31 06:47:12;;;;;;;32.73;22.83;;;;;;;3.68;100.00;101255.83;1458667;90;21280;-91
2022/12/31 06:49:39;;;;;;;36.17;24.23;;;;;;;3.75;100.00;101255.89;1450968;90;21383;-91
2022/12/31 06:52:05;;;;;;;35.27;25.13;;;;;;;3.83;100.00;101254.17;1455386;90;21500;-87
2022/12/31 06:54:32;;;;;;;30.80;20.80;;;;;;;3.95;100.00;101250.03;1452537;90;21316;-93
2022/12/31 06:56:59;;;;;;;29.70;21.87;;;;;;;4.04;100.00;101253.44;1453300;90;22264;-92
2022/12/31 06:59:29;;;;;;;38.47;23.47;;;;;;;4.12;100.00;101250.41;1447922;90;21452;-88
2022/12/31 07:02:45;;;;;;;34.87;24.53;;;;;;;4.19;100.00;101255.20;1445037;90;22307;-88
2022/12/31 07:05:35;;;;;;;38.23;26.53;;;;;;;4.19;100.00;101265.67;1453730;88;21469;-89
2022/12/31 07:08:32;;;;;;;39.20;26.07;;;;;;;4.18;100.00;101265.78;1457395;89;21553;-93
2022/12/31 07:11:07;;;;;;;36.43;24.30;;;;;;;4.21;100.00;101269.06;1453636;89;21447;-93
2022/12/31 07:14:09;;;;;;;35.30;25.63;;;;;;;4.21;100.00;101276.09;1456021;89;21399;-91
2022/12/31 07:17:15;;;;;;;35.67;24.23;;;;;;;4.25;100.00;101271.88;1451687;90;22307;-92
2022/12/31 07:20:05;;;;;;;32.67;23.13;;;;;;;4.32;100.00;101276.33;1456805;90;21392;-91
2022/12/31 07:22:32;;;;;;;35.20;23.87;;;;;;;4.38;100.00;101280.38;1451862;90;21483;-90
2022/12/31 07:24:59;;;;;;;36.03;23.97;;;;;;;4.45;100.00;101279.92;1454138;90;21434;-92
2022/12/31 07:27:49;;;;;;;36.43;25.53;;;;;;;4.48;100.00;101278.91;1451077;90;21361;-93
2022/12/31 07:30:23;;;;;;;42.83;27.50;;;;;;;4.53;100.00;101285.58;1434647;90;21597;-90
2022/12/31 07:33:09;;;;;;;41.23;28.67;;;;;;;4.50;100.00;101286.23;1442486;90;22548;-88
2022/12/31 07:35:50;;;;;;;56.77;28.53;;;;;;;4.54;100.00;101302.15;1440304;90;22278;-88
2022/12/31 07:38:53;;;;;;;34.40;25.20;;;;;;;4.56;100.00;101298.98;1443983;90;21560;-87
2022/12/31 07:41:25;;;;;;;40.13;25.67;;;;;;;4.62;100.00;101292.55;1447684;90;21552;-90
2022/12/31 07:44:15;;;;;;;37.77;24.70;;;;;;;4.72;100.00;101290.63;1449916;90;21331;-89
2022/12/31 07:46:52;;;;;;;35.07;23.77;;;;;;;4.83;100.00;101288.67;1445810;90;21576;-89
2022/12/31 07:49:19;;;;;;;43.23;27.40;;;;;;;4.93;100.00;101276.72;1443937;90;21971;-87
2022/12/31 07:51:46;;;;;;;51.53;30.97;;;;;;;5.05;100.00;101269.89;1445557;90;22329;-87
2022/12/31 07:54:12;;;;;;;50.73;32.97;;;;;;;5.12;100.00;101271.23;1445518;90;22382;-87
2022/12/31 07:56:39;;;;;;;63.63;42.90;;;;;;;5.19;100.00;101266.45;1441947;90;21531;-90
2022/12/31 07:59:44;;;;;;;69.53;49.43;;;;;;;5.23;100.00;101267.09;1439631;90;21493;-87
2022/12/31 08:02:56;;;;;;;91.03;45.97;;;;;;;5.26;100.00;101274.78;1439784;90;21413;-88
2022/12/31 08:05:50;;;;;;;55.33;38.07;;;;;;;5.28;100.00;101296.06;1433988;90;21404;-88
2022/12/31 08:08:53;;;;;;;57.27;41.23;;;;;;;5.25;100.00;101315.94;1443311;90;21478;-89
2022/12/31 08:11:30;;;;;;;109.07;62.87;;;;;;;5.22;100.00;101325.31;1447620;89;21457;-88
2022/12/31 08:14:01;;;;;;;224.60;111.73;;;;;;;5.23;100.00;101321.74;1448845;89;22374;-88
2022/12/31 08:16:28;;;;;;;73.37;46.58;;;;;;;5.26;100.00;101328.59;1455801;90;22351;-90
2022/12/31 08:18:55;;;;;;;66.60;44.30;;;;;;;5.20;100.00;101342.92;1446156;89;21501;-88
2022/12/31 08:21:39;;;;;;;65.73;42.17;;;;;;;5.15;100.00;101343.66;1456025;89;21398;-90
2022/12/31 08:24:34;;;;;;;52.07;34.67;;;;;;;5.18;100.00;101343.50;1442717;89;21456;-88
2022/12/31 08:27:20;;;;;;;54.83;36.50;;;;;;;5.27;100.00;101337.70;1444574;89;22403;-83
2022/12/31 08:29:55;;;;;;;48.63;33.07;;;;;;;5.39;100.00;101341.38;1445278;89;21397;-87
2022/12/31 08:32:43;;;;;;;50.33;29.93;;;;;;;5.47;100.00;101346.14;1455825;88;22328;-83
2022/12/31 08:36:03;;;;;;;42.37;30.00;;;;;;;5.46;100.00;101349.72;1453833;89;21865;-88
2022/12/31 08:38:37;;;;;;;84.57;46.67;;;;;;;5.53;100.00;101351.05;1452306;90;21611;-87
2022/12/31 08:41:09;;;;;;;141.60;69.37;;;;;;;5.58;100.00;101355.09;1449822;90;21413;-86
2022/12/31 08:43:57;;;;;;;46.93;30.67;;;;;;;5.66;100.00;101365.11;1446967;89;21441;-85
2022/12/31 08:46:32;;;;;;;54.57;33.93;;;;;;;5.76;100.00;101376.77;1504567;89;21464;-90
2022/12/31 08:48:59;;;;;;;47.10;31.90;;;;;;;5.97;100.00;101357.55;1374067;89;21446;-88
2022/12/31 08:51:26;;;;;;;41.83;29.17;;;;;;;6.17;100.00;101351.05;1377569;90;21206;-90
2022/12/31 08:53:54;;;;;;;43.70;30.17;;;;;;;6.33;100.00;101342.56;1532311;90;21332;-87
2022/12/31 08:56:46;;;;;;;44.67;30.47;;;;;;;6.51;100.00;101337.07;1411297;90;21509;-89
2022/12/31 08:59:30;;;;;;;46.83;31.23;;;;;;;6.71;100.00;101331.83;1456745;90;22292;-87
2022/12/31 09:02:41;;;;;;;51.53;33.93;;;;;;;6.94;100.00;101321.94;1453922;90;21287;-89
2022/12/31 09:05:45;;;;;;;;;;;;;;;7.13;100.00;101320.21;1451905;90;21287;-91
2022/12/31 09:08:36;;;;;;;53.70;34.13;;;;;;;7.31;100.00;101321.23;1453214;89;20336;-90
2022/12/31 09:11:08;;;;;;;55.33;36.23;;;;;;;7.35;100.00;101318.77;1451722;89;22393;-92
2022/12/31 09:14:02;;;;;;;49.70;33.93;;;;;;;7.37;100.00;101319.52;1449357;89;21569;-90
2022/12/31 09:16:46;;;;;;;50.93;30.87;;;;;;;7.42;100.00;101327.92;1448878;89;22099;-91
2022/12/31 09:19:12;;;;;;;40.43;27.83;;;;;;;7.48;100.00;101328.84;1449735;90;21619;-87
2022/12/31 09:21:44;;;;;;;49.00;29.33;;;;;;;7.51;100.00;101339.17;1453313;90;21420;-90
2022/12/31 09:24:14;;;;;;;40.97;25.57;;;;;;;7.51;100.00;101329.08;1452752;89;21504;-85
2022/12/31 09:27:07;;;;;;;34.08;21.95;;;;;;;7.50;100.00;101322.97;1454211;90;21435;-90
2022/12/31 09:29:58;;;;;;;36.50;24.67;;;;;;;7.54;100.00;101335.45;1429383;91;21629;-89
2022/12/31 09:32:36;;;;;;;35.60;23.43;;;;;;;7.56;100.00;101335.72;1430366;91;21553;-88
2022/12/31 09:35:26;;;;;;;30.37;20.40;;;;;;;7.64;100.00;101334.72;1429822;91;22664;-84
2022/12/31 09:38:26;;;;;;;32.23;20.60;;;;;;;7.62;100.00;101328.73;1425186;91;22536;-86
2022/12/31 09:41:16;;;;;;;29.37;21.43;;;;;;;7.52;100.00;101315.82;1430320;91;21375;-91
2022/12/31 09:43:56;;;;;;;30.07;21.47;;;;;;;7.55;100.00;101318.23;1424261;91;21456;-91
2022/12/31 09:46:49;;;;;;;32.40;21.63;;;;;;;7.67;100.00;101325.28;1428459;91;21360;-91
2022/12/31 09:49:32;;;;;;;27.13;19.87;;;;;;;7.73;100.00;101316.59;1426015;91;21636;-89
2022/12/31 09:52:42;;;;;;;32.10;21.90;;;;;;;7.82;100.00;101308.03;1430428;91;21493;-92
2022/12/31 09:55:23;;;;;;;35.97;23.83;;;;;;;7.87;100.00;101303.28;1429700;91;21611;-83
2022/12/31 09:58:32;;;;;;;33.28;23.32;;;;;;;7.80;100.00;101302.05;1427991;91;21361;-83
2022/12/31 10:01:23;;;;;;;31.07;21.53;;;;;;;7.79;100.00;101302.97;1430860;91;21531;-84
2022/12/31 10:04:27;;;;;;;33.30;24.30;;;;;;;7.76;100.00;101298.77;1429952;91;21501;-84
2022/12/31 10:07:24;;;;;;;36.00;24.63;;;;;;;7.75;100.00;101308.11;1435712;90;21360;-86
2022/12/31 10:10:14;;;;;;;34.30;25.73;;;;;;;7.72;100.00;101297.30;1450805;90;21501;-86
2022/12/31 10:13:13;;;;;;;38.63;24.97;;;;;;;7.76;100.00;101308.47;1448765;89;21682;-85
2022/12/31 10:15:50;;;;;;;44.30;30.53;;;;;;;7.78;100.00;101314.48;1447679;90;22041;-86
2022/12/31 10:18:48;;;;;;;47.97;35.50;;;;;;;7.82;100.00;101318.56;1452129;89;21442;-84
2022/12/31 10:21:46;;;;;;;41.87;32.03;;;;;;;7.81;100.00;101318.22;1446585;90;22491;-86
2022/12/31 10:24:47;;;;;;;42.30;30.17;;;;;;;7.78;100.00;101320.58;1450316;90;21412;-86
2022/12/31 10:27:37;;;;;;;40.03;30.45;;;;;;;7.64;100.00;101315.44;1455809;89;21564;-86
2022/12/31 10:30:17;;;;;;;50.92;35.30;;;;;;;7.59;100.00;101317.06;1452374;89;21538;-84
2022/12/31 10:33:09;;;;;;;46.00;33.67;;;;;;;7.56;100.00;101321.70;1449569;90;21597;-85
2022/12/31 10:36:02;;;;;;;53.93;35.50;;;;;;;7.55;100.00;101316.92;1451630;89;21398;-86
2022/12/31 10:38:54;;;;;;;45.33;32.70;;;;;;;7.50;100.00;101314.23;1440991;90;21435;-85
2022/12/31 10:42:22;;;;;;;43.53;29.73;;;;;;;7.55;100.00;101290.58;1452412;90;21471;-86
2022/12/31 10:44:53;;;;;;;44.37;32.40;;;;;;;7.64;100.00;101300.95;1376229;90;21472;-86
2022/12/31 10:47:44;;;;;;;49.20;33.90;;;;;;;7.74;100.00;101320.89;1533843;90;21162;-86
2022/12/31 10:50:43;;;;;;;44.73;33.60;;;;;;;7.77;100.00;101320.67;1378662;90;21214;-85
2022/12/31 10:53:27;;;;;;;71.43;42.53;;;;;;;7.75;100.00;101293.61;1430895;90;21429;-85
2022/12/31 10:56:39;;;;;;;50.30;35.07;;;;;;;7.74;100.00;101285.32;1533663;90;21236;-85
2022/12/31 10:59:32;;;;;;;48.07;33.33;;;;;;;7.75;100.00;101302.84;1533880;89;21184;-84
2022/12/31 11:02:41;;;;;;;46.80;33.07;;;;;;;7.79;100.00;101318.30;1518599;90;21494;-85
2022/12/31 11:05:57;;;;;;;43.07;33.57;;;;;;;7.80;100.00;101323.12;1450616;90;21511;-85
2022/12/31 11:09:10;;;;;;;47.13;34.00;;;;;;;7.83;100.00;101312.37;1415644;92;21450;-85
2022/12/31 11:11:46;;;;;;;42.50;32.07;;;;;;;7.85;100.00;101313.08;1452314;88;21553;-85
2022/12/31 11:15:03;;;;;;;51.53;33.00;;;;;;;7.86;100.00;101306.88;1449130;89;21406;-86
2022/12/31 11:18:08;;;;;;;54.13;38.00;;;;;;;7.88;100.00;101316.37;1448318;89;21656;-86
2022/12/31 11:20:54;;;;;;;51.73;37.87;;;;;;;7.91;100.00;101320.55;1453498;89;21472;-86
2022/12/31 11:23:56;;;;;;;59.07;40.53;;;;;;;7.99;100.00;101299.77;1431359;91;21618;-86
2022/12/31 11:26:47;;;;;;;48.17;35.97;;;;;;;8.04;100.00;101297.65;1428191;91;22485;-86
2022/12/31 11:29:45;;;;;;;45.13;34.57;;;;;;;8.24;100.00;101315.16;1426873;91;21675;-84
2022/12/31 11:32:32;;;;;;;54.83;36.83;;;;;;;8.41;100.00;101314.80;1426915;91;21536;-85
2022/12/31 11:35:29;;;;;;;42.63;31.93;;;;;;;8.54;100.00;101322.17;1429222;91;21479;-86
2022/12/31 11:38:25;;;;;;;46.20;35.73;;;;;;;8.59;100.00;101333.23;1421072;91;21554;-86
2022/12/31 11:41:24;;;;;;;50.30;36.17;;;;;;;8.56;100.00;101325.55;1425364;91;21618;-84
2022/12/31 11:44:08;;;;;;;49.87;34.87;;;;;;;8.53;100.00;101324.45;1422008;91;21449;-85
2022/12/31 11:47:04;;;;;;;51.10;34.73;;;;;;;8.51;99.92;101335.59;1429881;91;21622;-86
2022/12/31 11:49:44;;;;;;;55.33;38.63;;;;;;;8.45;99.46;101320.69;1410415;91;21641;-85
2022/12/31 11:59:45;;;;;;;49.33;35.63;;;;;;;8.32;99.77;101323.36;1404430;94;21659;-82
2022/12/31 12:02:29;;;;;;;48.23;35.10;;;;;;;8.31;100.00;101331.72;1331323;93;21267;-86
2022/12/31 12:05:00;;;;;;;51.53;35.20;;;;;;;8.32;100.00;101332.59;1397013;93;21673;-82
2022/12/31 12:07:28;;;;;;;;;;;;;;;8.33;100.00;101334.27;1400902;93;21466;-84